Lometa, Texas
Current Conditions -  °F | °C
As of 4:15 PM on Monday 26 Jan 2015 (Local Time) from KLZZ Reporting Station
Clear Clear  
Wind Chill: 71°   Ceiling: Unl
Heat Index: 71°   Visibility: 10mi
Dew Point: 36°   Wind: 7mph
Humidity: 28%   Direction: 260°W
Pressure: 30.15"   Gusts: NA
Location:  31.22°N, 98.39°W
Report Text: KLZZ 262215Z AUTO 26006KT 10SM CLR 22/02 A3015 RMK AO2 T02150020
Loading
Personal Weather Stations






























Interactive Weather Map New forecast layout! Learn more

10-Day Weather Forecast

Advertisements
Track Severe Weather on mobile